sensor_id;sensor_type;location;lat;lon;timestamp;pressure;altitude;pressure_sealevel;temperature;humidity
10261;BME280;5175;42.606;23.388;2022-10-19T00:01:13;94359.75;;;5.74;89.39
10261;BME280;5175;42.606;23.388;2022-10-19T00:03:41;94363.56;;;5.66;89.17
10261;BME280;5175;42.606;23.388;2022-10-19T00:06:13;94375.75;;;5.90;88.89
10261;BME280;5175;42.606;23.388;2022-10-19T00:08:41;94373.78;;;5.97;89.09
10261;BME280;5175;42.606;23.388;2022-10-19T00:11:10;94368.56;;;6.02;88.60
10261;BME280;5175;42.606;23.388;2022-10-19T00:13:37;94365.84;;;5.86;89.01
10261;BME280;5175;42.606;23.388;2022-10-19T00:16:07;94356.75;;;5.82;88.89
10261;BME280;5175;42.606;23.388;2022-10-19T00:18:34;94364.47;;;5.95;88.58
10261;BME280;5175;42.606;23.388;2022-10-19T00:21:03;94363.66;;;5.94;88.37
10261;BME280;5175;42.606;23.388;2022-10-19T00:23:30;94358.00;;;5.91;88.56
10261;BME280;5175;42.606;23.388;2022-10-19T00:25:57;94354.25;;;5.75;89.55
10261;BME280;5175;42.606;23.388;2022-10-19T00:28:25;94353.06;;;5.83;89.16
10261;BME280;5175;42.606;23.388;2022-10-19T00:30:52;94348.25;;;5.68;89.65
10261;BME280;5175;42.606;23.388;2022-10-19T00:33:19;94347.50;;;5.56;90.04
10261;BME280;5175;42.606;23.388;2022-10-19T00:35:47;94333.31;;;5.11;90.13
10261;BME280;5175;42.606;23.388;2022-10-19T00:38:15;94331.56;;;5.16;90.43
10261;BME280;5175;42.606;23.388;2022-10-19T00:40:42;94327.19;;;5.22;90.16
10261;BME280;5175;42.606;23.388;2022-10-19T00:43:12;94323.41;;;5.18;90.34
10261;BME280;5175;42.606;23.388;2022-10-19T00:45:41;94319.84;;;5.24;90.50
10261;BME280;5175;42.606;23.388;2022-10-19T00:48:10;94316.84;;;5.20;90.59
10261;BME280;5175;42.606;23.388;2022-10-19T00:50:39;94300.63;;;4.93;90.39
10261;BME280;5175;42.606;23.388;2022-10-19T00:53:06;94305.69;;;4.83;90.37
10261;BME280;5175;42.606;23.388;2022-10-19T00:55:33;94304.69;;;4.84;90.54
10261;BME280;5175;42.606;23.388;2022-10-19T00:58:02;94287.31;;;4.77;90.69
10261;BME280;5175;42.606;23.388;2022-10-19T01:00:29;94287.22;;;4.95;90.46
10261;BME280;5175;42.606;23.388;2022-10-19T01:02:57;94299.50;;;5.13;90.39
10261;BME280;5175;42.606;23.388;2022-10-19T01:05:25;94292.78;;;5.22;89.90
10261;BME280;5175;42.606;23.388;2022-10-19T01:07:53;94304.66;;;5.07;90.26
10261;BME280;5175;42.606;23.388;2022-10-19T01:10:26;94286.50;;;4.99;90.39
10261;BME280;5175;42.606;23.388;2022-10-19T01:13:05;94289.81;;;5.06;89.94
10261;BME280;5175;42.606;23.388;2022-10-19T01:15:40;94278.09;;;4.91;89.74
10261;BME280;5175;42.606;23.388;2022-10-19T01:18:18;94286.16;;;4.96;90.04
10261;BME280;5175;42.606;23.388;2022-10-19T01:21:13;94285.13;;;4.85;90.18
10261;BME280;5175;42.606;23.388;2022-10-19T01:23:59;94281.09;;;4.83;90.55
10261;BME280;5175;42.606;23.388;2022-10-19T01:26:56;94282.72;;;4.61;90.59
10261;BME280;5175;42.606;23.388;2022-10-19T01:32:12;94259.38;;;4.34;90.53
10261;BME280;5175;42.606;23.388;2022-10-19T01:34:47;94270.19;;;4.56;90.62
10261;BME280;5175;42.606;23.388;2022-10-19T01:37:17;94271.56;;;4.47;90.57
10261;BME280;5175;42.606;23.388;2022-10-19T01:39:52;94255.59;;;4.30;90.61
10261;BME280;5175;42.606;23.388;2022-10-19T01:42:27;94251.78;;;4.26;90.66
10261;BME280;5175;42.606;23.388;2022-10-19T01:45:01;94259.59;;;4.21;90.45
10261;BME280;5175;42.606;23.388;2022-10-19T01:47:35;94255.69;;;4.24;90.69
10261;BME280;5175;42.606;23.388;2022-10-19T01:50:09;94249.72;;;4.17;90.70
10261;BME280;5175;42.606;23.388;2022-10-19T01:52:39;94252.56;;;4.04;90.68
10261;BME280;5175;42.606;23.388;2022-10-19T01:55:09;94243.63;;;4.16;90.66
10261;BME280;5175;42.606;23.388;2022-10-19T01:57:40;94246.88;;;4.18;90.62
10261;BME280;5175;42.606;23.388;2022-10-19T02:00:11;94243.06;;;4.14;90.65
10261;BME280;5175;42.606;23.388;2022-10-19T02:02:42;94245.69;;;4.14;90.86
10261;BME280;5175;42.606;23.388;2022-10-19T02:05:10;94244.25;;;3.89;90.48
10261;BME280;5175;42.606;23.388;2022-10-19T02:07:40;94256.69;;;4.00;90.79
10261;BME280;5175;42.606;23.388;2022-10-19T02:10:09;94249.34;;;4.02;90.91
10261;BME280;5175;42.606;23.388;2022-10-19T02:12:37;94215.72;;;3.97;90.97
10261;BME280;5175;42.606;23.388;2022-10-19T02:15:09;94238.22;;;4.11;91.03
10261;BME280;5175;42.606;23.388;2022-10-19T02:17:43;94238.47;;;4.10;91.20
10261;BME280;5175;42.606;23.388;2022-10-19T02:20:12;94240.88;;;4.23;90.56
10261;BME280;5175;42.606;23.388;2022-10-19T02:22:39;94248.44;;;4.08;90.86
10261;BME280;5175;42.606;23.388;2022-10-19T02:25:07;94236.88;;;4.20;90.75
10261;BME280;5175;42.606;23.388;2022-10-19T02:27:35;94241.59;;;4.18;90.71
10261;BME280;5175;42.606;23.388;2022-10-19T02:30:05;94246.50;;;4.15;90.74
10261;BME280;5175;42.606;23.388;2022-10-19T02:32:32;94249.59;;;4.00;90.63
10261;BME280;5175;42.606;23.388;2022-10-19T02:35:00;94244.72;;;3.86;90.78
10261;BME280;5175;42.606;23.388;2022-10-19T02:37:27;94239.69;;;3.54;90.81
10261;BME280;5175;42.606;23.388;2022-10-19T02:39:54;94239.41;;;3.74;90.94
10261;BME280;5175;42.606;23.388;2022-10-19T02:42:26;94236.78;;;3.86;90.90
10261;BME280;5175;42.606;23.388;2022-10-19T02:44:56;94235.91;;;3.92;90.85
10261;BME280;5175;42.606;23.388;2022-10-19T02:47:26;94239.09;;;3.94;90.42
10261;BME280;5175;42.606;23.388;2022-10-19T02:49:53;94235.47;;;4.06;89.59
10261;BME280;5175;42.606;23.388;2022-10-19T02:52:22;94231.03;;;4.18;88.36
10261;BME280;5175;42.606;23.388;2022-10-19T02:54:48;94230.91;;;4.25;87.56
10261;BME280;5175;42.606;23.388;2022-10-19T02:57:17;94224.34;;;4.16;88.09
10261;BME280;5175;42.606;23.388;2022-10-19T02:59:44;94225.72;;;4.07;87.96
10261;BME280;5175;42.606;23.388;2022-10-19T03:02:12;94221.19;;;3.96;89.50
10261;BME280;5175;42.606;23.388;2022-10-19T03:04:38;94206.09;;;4.03;88.93
10261;BME280;5175;42.606;23.388;2022-10-19T03:07:06;94217.69;;;4.13;88.16
10261;BME280;5175;42.606;23.388;2022-10-19T03:09:34;94222.16;;;4.13;87.65
10261;BME280;5175;42.606;23.388;2022-10-19T03:12:00;94228.50;;;4.23;87.20
10261;BME280;5175;42.606;23.388;2022-10-19T03:14:27;94225.13;;;4.05;87.73
10261;BME280;5175;42.606;23.388;2022-10-19T03:16:54;94228.22;;;4.02;87.56
10261;BME280;5175;42.606;23.388;2022-10-19T03:19:21;94226.63;;;4.12;87.17
10261;BME280;5175;42.606;23.388;2022-10-19T03:21:48;94233.63;;;4.07;87.47
10261;BME280;5175;42.606;23.388;2022-10-19T03:24:15;94236.25;;;4.07;87.46
10261;BME280;5175;42.606;23.388;2022-10-19T03:26:43;94225.78;;;3.89;87.66
10261;BME280;5175;42.606;23.388;2022-10-19T03:29:10;94234.56;;;4.12;87.22
10261;BME280;5175;42.606;23.388;2022-10-19T03:31:36;94230.88;;;4.02;87.43
10261;BME280;5175;42.606;23.388;2022-10-19T03:34:03;94233.88;;;4.05;87.20
10261;BME280;5175;42.606;23.388;2022-10-19T03:36:32;94232.63;;;3.78;88.02
10261;BME280;5175;42.606;23.388;2022-10-19T03:39:01;94229.66;;;3.74;88.12
10261;BME280;5175;42.606;23.388;2022-10-19T03:41:29;94236.53;;;3.75;87.82
10261;BME280;5175;42.606;23.388;2022-10-19T03:43:57;94227.22;;;3.73;87.69
10261;BME280;5175;42.606;23.388;2022-10-19T03:46:24;94224.47;;;3.68;87.98
10261;BME280;5175;42.606;23.388;2022-10-19T03:48:51;94208.06;;;3.66;87.35
10261;BME280;5175;42.606;23.388;2022-10-19T03:51:20;94219.75;;;3.70;87.57
10261;BME280;5175;42.606;23.388;2022-10-19T03:53:50;94218.50;;;3.72;87.04
10261;BME280;5175;42.606;23.388;2022-10-19T03:56:20;94216.47;;;3.74;86.81
10261;BME280;5175;42.606;23.388;2022-10-19T03:58:48;94198.56;;;3.76;86.37
10261;BME280;5175;42.606;23.388;2022-10-19T04:01:18;94212.78;;;3.64;87.35
10261;BME280;5175;42.606;23.388;2022-10-19T04:03:45;94215.59;;;3.51;87.59
10261;BME280;5175;42.606;23.388;2022-10-19T04:06:14;94215.34;;;3.52;87.97
10261;BME280;5175;42.606;23.388;2022-10-19T04:08:42;94199.13;;;3.67;87.41
10261;BME280;5175;42.606;23.388;2022-10-19T04:11:11;94223.03;;;3.84;86.41
10261;BME280;5175;42.606;23.388;2022-10-19T04:13:38;94220.50;;;3.77;86.67
10261;BME280;5175;42.606;23.388;2022-10-19T04:16:06;94211.47;;;3.96;85.26
10261;BME280;5175;42.606;23.388;2022-10-19T04:18:34;94196.75;;;3.89;85.17
10261;BME280;5175;42.606;23.388;2022-10-19T04:21:03;94212.13;;;3.92;85.67
10261;BME280;5175;42.606;23.388;2022-10-19T04:23:32;94215.22;;;3.89;85.74
10261;BME280;5175;42.606;23.388;2022-10-19T04:26:00;94198.25;;;3.85;85.72
10261;BME280;5175;42.606;23.388;2022-10-19T04:28:27;94199.28;;;3.84;84.48
10261;BME280;5175;42.606;23.388;2022-10-19T04:30:54;94191.22;;;3.78;85.83
10261;BME280;5175;42.606;23.388;2022-10-19T04:33:21;94133.22;;;3.37;87.10
10261;BME280;5175;42.606;23.388;2022-10-19T04:35:56;94191.16;;;3.44;88.06
10261;BME280;5175;42.606;23.388;2022-10-19T04:38:23;94190.66;;;3.05;89.13
10261;BME280;5175;42.606;23.388;2022-10-19T04:40:50;94179.34;;;3.16;88.95
10261;BME280;5175;42.606;23.388;2022-10-19T04:43:17;94183.19;;;3.32;88.68
10261;BME280;5175;42.606;23.388;2022-10-19T04:45:43;94194.16;;;3.29;88.57
10261;BME280;5175;42.606;23.388;2022-10-19T04:48:10;94187.69;;;3.13;88.81
10261;BME280;5175;42.606;23.388;2022-10-19T04:50:37;94182.63;;;3.42;88.25
10261;BME280;5175;42.606;23.388;2022-10-19T04:53:05;94184.53;;;3.23;88.35
10261;BME280;5175;42.606;23.388;2022-10-19T04:55:32;94197.13;;;3.51;87.80
10261;BME280;5175;42.606;23.388;2022-10-19T04:57:58;94179.09;;;3.48;86.79
10261;BME280;5175;42.606;23.388;2022-10-19T05:00:25;94198.78;;;3.75;86.23
10261;BME280;5175;42.606;23.388;2022-10-19T05:02:52;94167.84;;;3.82;85.26
10261;BME280;5175;42.606;23.388;2022-10-19T05:05:19;94194.47;;;4.04;84.08
10261;BME280;5175;42.606;23.388;2022-10-19T05:07:47;94184.84;;;4.09;84.42
10261;BME280;5175;42.606;23.388;2022-10-19T05:10:16;94196.44;;;3.97;84.96
10261;BME280;5175;42.606;23.388;2022-10-19T05:12:42;94165.88;;;3.77;85.88
10261;BME280;5175;42.606;23.388;2022-10-19T05:15:10;94189.66;;;4.01;86.14
10261;BME280;5175;42.606;23.388;2022-10-19T05:17:36;94188.88;;;4.12;85.63
10261;BME280;5175;42.606;23.388;2022-10-19T05:20:04;94187.00;;;4.01;86.15
10261;BME280;5175;42.606;23.388;2022-10-19T05:22:31;94200.34;;;4.17;85.98
10261;BME280;5175;42.606;23.388;2022-10-19T05:24:58;94187.25;;;4.34;85.17
10261;BME280;5175;42.606;23.388;2022-10-19T05:27:26;94187.38;;;4.27;85.38
10261;BME280;5175;42.606;23.388;2022-10-19T05:29:53;94181.50;;;4.37;85.03
10261;BME280;5175;42.606;23.388;2022-10-19T05:32:20;94186.47;;;4.33;85.46
10261;BME280;5175;42.606;23.388;2022-10-19T05:34:46;94181.41;;;4.32;85.63
10261;BME280;5175;42.606;23.388;2022-10-19T05:37:15;94182.47;;;4.31;85.62
10261;BME280;5175;42.606;23.388;2022-10-19T05:39:42;94188.28;;;4.21;85.93
10261;BME280;5175;42.606;23.388;2022-10-19T05:42:09;94185.56;;;4.28;85.56
10261;BME280;5175;42.606;23.388;2022-10-19T05:44:37;94191.75;;;4.57;85.20
10261;BME280;5175;42.606;23.388;2022-10-19T05:47:04;94191.50;;;4.58;85.87
10261;BME280;5175;42.606;23.388;2022-10-19T05:49:30;94182.41;;;4.66;86.20
10261;BME280;5175;42.606;23.388;2022-10-19T05:51:57;94187.81;;;4.82;85.84
10261;BME280;5175;42.606;23.388;2022-10-19T05:54:24;94197.78;;;4.92;85.68
10261;BME280;5175;42.606;23.388;2022-10-19T05:56:51;94188.63;;;5.11;84.67
10261;BME280;5175;42.606;23.388;2022-10-19T05:59:19;94189.00;;;5.43;82.76
10261;BME280;5175;42.606;23.388;2022-10-19T06:01:47;94187.03;;;5.66;81.52
10261;BME280;5175;42.606;23.388;2022-10-19T06:04:14;94197.75;;;5.88;81.94
10261;BME280;5175;42.606;23.388;2022-10-19T06:06:42;94196.75;;;6.06;81.79
10261;BME280;5175;42.606;23.388;2022-10-19T06:09:08;94185.81;;;6.19;81.59
10261;BME280;5175;42.606;23.388;2022-10-19T06:11:37;94202.84;;;6.40;81.88
10261;BME280;5175;42.606;23.388;2022-10-19T06:14:05;94200.91;;;6.52;82.18
10261;BME280;5175;42.606;23.388;2022-10-19T06:16:33;94192.56;;;6.60;79.57
10261;BME280;5175;42.606;23.388;2022-10-19T06:19:02;94215.00;;;6.74;79.49
10261;BME280;5175;42.606;23.388;2022-10-19T06:21:30;94214.59;;;6.82;78.60
10261;BME280;5175;42.606;23.388;2022-10-19T06:23:59;94219.63;;;7.00;77.83
10261;BME280;5175;42.606;23.388;2022-10-19T06:26:27;94216.72;;;7.23;78.96
10261;BME280;5175;42.606;23.388;2022-10-19T06:28:55;94219.63;;;7.43;75.83
10261;BME280;5175;42.606;23.388;2022-10-19T06:31:23;94233.94;;;7.64;73.45
10261;BME280;5175;42.606;23.388;2022-10-19T06:33:50;94227.91;;;7.74;73.04
10261;BME280;5175;42.606;23.388;2022-10-19T06:36:20;94231.41;;;8.01;70.60
10261;BME280;5175;42.606;23.388;2022-10-19T06:38:48;94214.34;;;7.97;70.53
10261;BME280;5175;42.606;23.388;2022-10-19T06:41:15;94231.81;;;8.19;69.91
10261;BME280;5175;42.606;23.388;2022-10-19T06:43:42;94227.50;;;8.40;69.49
10261;BME280;5175;42.606;23.388;2022-10-19T06:46:11;94227.22;;;8.73;67.04
10261;BME280;5175;42.606;23.388;2022-10-19T06:48:39;94222.59;;;8.96;65.88
10261;BME280;5175;42.606;23.388;2022-10-19T06:51:06;94221.94;;;9.20;65.31
10261;BME280;5175;42.606;23.388;2022-10-19T06:53:35;94219.59;;;9.34;64.39
10261;BME280;5175;42.606;23.388;2022-10-19T06:56:04;94218.38;;;9.57;63.23
10261;BME280;5175;42.606;23.388;2022-10-19T06:58:34;94214.44;;;9.79;62.25
10261;BME280;5175;42.606;23.388;2022-10-19T07:01:01;94219.00;;;10.04;61.37
10261;BME280;5175;42.606;23.388;2022-10-19T07:03:28;94211.63;;;10.16;60.96
10261;BME280;5175;42.606;23.388;2022-10-19T07:05:57;94205.19;;;10.27;63.31
10261;BME280;5175;42.606;23.388;2022-10-19T07:08:26;94154.81;;;10.26;63.63
10261;BME280;5175;42.606;23.388;2022-10-19T07:10:56;94198.53;;;10.80;64.58
10261;BME280;5175;42.606;23.388;2022-10-19T07:13:24;94184.38;;;10.90;61.54
10261;BME280;5175;42.606;23.388;2022-10-19T07:15:55;94195.25;;;11.18;69.15
10261;BME280;5175;42.606;23.388;2022-10-19T07:18:22;94202.91;;;11.45;59.58
10261;BME280;5175;42.606;23.388;2022-10-19T07:20:53;94197.75;;;11.69;57.62
10261;BME280;5175;42.606;23.388;2022-10-19T07:23:20;94203.63;;;11.71;56.87
10261;BME280;5175;42.606;23.388;2022-10-19T07:25:47;94201.09;;;11.94;56.38
10261;BME280;5175;42.606;23.388;2022-10-19T07:28:15;94203.13;;;12.13;55.86
10261;BME280;5175;42.606;23.388;2022-10-19T07:30:42;94205.66;;;12.33;53.58
10261;BME280;5175;42.606;23.388;2022-10-19T07:33:08;94209.03;;;12.48;53.69
10261;BME280;5175;42.606;23.388;2022-10-19T07:35:35;94193.03;;;12.72;53.45
10261;BME280;5175;42.606;23.388;2022-10-19T07:38:02;94192.91;;;12.87;52.97
10261;BME280;5175;42.606;23.388;2022-10-19T07:40:29;94190.00;;;12.84;51.81
10261;BME280;5175;42.606;23.388;2022-10-19T07:42:55;94182.56;;;13.04;50.96
10261;BME280;5175;42.606;23.388;2022-10-19T07:45:24;94180.53;;;13.20;49.94
10261;BME280;5175;42.606;23.388;2022-10-19T07:47:50;94181.13;;;13.17;49.40
10261;BME280;5175;42.606;23.388;2022-10-19T07:50:17;94181.34;;;13.44;50.14
10261;BME280;5175;42.606;23.388;2022-10-19T07:52:44;94179.28;;;13.60;49.40
10261;BME280;5175;42.606;23.388;2022-10-19T07:55:11;94174.75;;;13.79;48.63
10261;BME280;5175;42.606;23.388;2022-10-19T07:57:37;94164.81;;;13.79;47.74
10261;BME280;5175;42.606;23.388;2022-10-19T08:00:05;94166.78;;;13.93;47.75
10261;BME280;5175;42.606;23.388;2022-10-19T08:02:33;94144.31;;;13.89;46.93
10261;BME280;5175;42.606;23.388;2022-10-19T08:05:00;94156.94;;;14.07;46.07
10261;BME280;5175;42.606;23.388;2022-10-19T08:07:27;94166.81;;;14.30;46.75
10261;BME280;5175;42.606;23.388;2022-10-19T08:09:54;94162.69;;;14.37;46.12
10261;BME280;5175;42.606;23.388;2022-10-19T08:12:20;94158.97;;;14.52;46.39
10261;BME280;5175;42.606;23.388;2022-10-19T08:14:47;94163.19;;;14.72;46.10
10261;BME280;5175;42.606;23.388;2022-10-19T08:17:14;94162.59;;;14.75;45.58
10261;BME280;5175;42.606;23.388;2022-10-19T08:19:43;94160.50;;;14.72;45.89
10261;BME280;5175;42.606;23.388;2022-10-19T08:22:10;94164.31;;;14.84;45.97
10261;BME280;5175;42.606;23.388;2022-10-19T08:24:36;94165.47;;;14.97;46.03
10261;BME280;5175;42.606;23.388;2022-10-19T08:27:04;94155.91;;;15.04;45.70
10261;BME280;5175;42.606;23.388;2022-10-19T08:29:30;94149.53;;;15.14;45.47
10261;BME280;5175;42.606;23.388;2022-10-19T08:31:58;94148.25;;;15.12;45.34
10261;BME280;5175;42.606;23.388;2022-10-19T08:34:25;94162.50;;;15.12;45.66
10261;BME280;5175;42.606;23.388;2022-10-19T08:36:53;94158.81;;;15.22;45.75
10261;BME280;5175;42.606;23.388;2022-10-19T08:39:19;94158.16;;;15.57;45.12
10261;BME280;5175;42.606;23.388;2022-10-19T08:41:56;94147.97;;;15.68;44.91
10261;BME280;5175;42.606;23.388;2022-10-19T08:44:52;94149.53;;;15.82;44.19
10261;BME280;5175;42.606;23.388;2022-10-19T08:47:34;94144.94;;;15.96;44.28
10261;BME280;5175;42.606;23.388;2022-10-19T08:50:15;94139.72;;;16.00;43.95
10261;BME280;5175;42.606;23.388;2022-10-19T08:52:47;94130.66;;;15.74;43.88
10261;BME280;5175;42.606;23.388;2022-10-19T08:55:19;94134.97;;;15.97;44.31
10261;BME280;5175;42.606;23.388;2022-10-19T08:57:54;94136.88;;;16.32;43.88
10261;BME280;5175;42.606;23.388;2022-10-19T09:00:33;94140.47;;;16.50;43.60
10261;BME280;5175;42.606;23.388;2022-10-19T09:03:08;94139.72;;;16.71;42.72
10261;BME280;5175;42.606;23.388;2022-10-19T09:05:43;94135.47;;;16.57;43.04
10261;BME280;5175;42.606;23.388;2022-10-19T09:08:13;94134.00;;;16.73;42.64
10261;BME280;5175;42.606;23.388;2022-10-19T09:10:41;94134.66;;;17.01;41.78
10261;BME280;5175;42.606;23.388;2022-10-19T09:13:15;94132.41;;;17.25;41.65
10261;BME280;5175;42.606;23.388;2022-10-19T09:15:47;94134.66;;;17.40;41.50
10261;BME280;5175;42.606;23.388;2022-10-19T09:18:20;94118.34;;;17.45;41.18
10261;BME280;5175;42.606;23.388;2022-10-19T09:20:48;94126.63;;;17.48;41.10
10261;BME280;5175;42.606;23.388;2022-10-19T09:23:23;94099.19;;;17.55;40.98
10261;BME280;5175;42.606;23.388;2022-10-19T09:25:52;94098.78;;;17.79;40.58
10261;BME280;5175;42.606;23.388;2022-10-19T09:28:30;94122.00;;;17.97;40.27
10261;BME280;5175;42.606;23.388;2022-10-19T09:31:00;94126.38;;;17.67;40.66
10261;BME280;5175;42.606;23.388;2022-10-19T09:33:32;94115.31;;;17.38;41.08
10261;BME280;5175;42.606;23.388;2022-10-19T09:36:02;94074.91;;;17.07;41.66
10261;BME280;5175;42.606;23.388;2022-10-19T09:38:32;94122.00;;;17.40;41.65
10261;BME280;5175;42.606;23.388;2022-10-19T09:41:11;94128.66;;;17.51;41.78
10261;BME280;5175;42.606;23.388;2022-10-19T09:43:43;94132.31;;;17.86;41.25
10261;BME280;5175;42.606;23.388;2022-10-19T09:46:25;94131.63;;;17.64;41.24
10261;BME280;5175;42.606;23.388;2022-10-19T09:48:53;94111.44;;;17.61;41.19
10261;BME280;5175;42.606;23.388;2022-10-19T09:51:20;94122.09;;;17.66;41.13
10261;BME280;5175;42.606;23.388;2022-10-19T09:53:50;94120.06;;;17.72;40.53
10261;BME280;5175;42.606;23.388;2022-10-19T09:56:19;94126.44;;;18.01;41.37
10261;BME280;5175;42.606;23.388;2022-10-19T09:58:46;94122.66;;;18.02;40.31
10261;BME280;5175;42.606;23.388;2022-10-19T10:01:29;94124.56;;;18.45;40.91
10261;BME280;5175;42.606;23.388;2022-10-19T10:04:04;94128.88;;;18.54;41.02
10261;BME280;5175;42.606;23.388;2022-10-19T10:06:32;94122.34;;;18.55;39.08
10261;BME280;5175;42.606;23.388;2022-10-19T10:09:00;94111.84;;;18.11;39.06
10261;BME280;5175;42.606;23.388;2022-10-19T10:11:29;94121.69;;;18.24;39.21
10261;BME280;5175;42.606;23.388;2022-10-19T10:13:59;94105.97;;;18.52;39.25
10261;BME280;5175;42.606;23.388;2022-10-19T10:16:33;94119.00;;;18.33;38.50
10261;BME280;5175;42.606;23.388;2022-10-19T10:19:04;94094.84;;;18.28;39.73
10261;BME280;5175;42.606;23.388;2022-10-19T10:21:33;94107.56;;;18.53;38.41
10261;BME280;5175;42.606;23.388;2022-10-19T10:24:04;94087.53;;;18.45;38.09
10261;BME280;5175;42.606;23.388;2022-10-19T10:26:38;94089.75;;;18.35;38.33
10261;BME280;5175;42.606;23.388;2022-10-19T10:29:16;94088.50;;;18.58;38.66
10261;BME280;5175;42.606;23.388;2022-10-19T10:31:45;94068.47;;;18.50;37.63
10261;BME280;5175;42.606;23.388;2022-10-19T10:34:25;94079.44;;;18.54;37.59
10261;BME280;5175;42.606;23.388;2022-10-19T10:36:56;94074.47;;;18.82;37.24
10261;BME280;5175;42.606;23.388;2022-10-19T10:39:26;94064.00;;;18.71;36.74
10261;BME280;5175;42.606;23.388;2022-10-19T10:41:54;94069.53;;;18.84;37.04
10261;BME280;5175;42.606;23.388;2022-10-19T10:44:26;94048.41;;;19.15;36.63
10261;BME280;5175;42.606;23.388;2022-10-19T10:46:56;94058.41;;;19.23;36.41
10261;BME280;5175;42.606;23.388;2022-10-19T10:49:25;94017.25;;;19.09;35.39
10261;BME280;5175;42.606;23.388;2022-10-19T10:51:54;94044.72;;;19.19;35.38
10261;BME280;5175;42.606;23.388;2022-10-19T10:54:25;94049.28;;;19.36;35.02
10261;BME280;5175;42.606;23.388;2022-10-19T10:57:07;94025.44;;;19.59;36.68
10261;BME280;5175;42.606;23.388;2022-10-19T10:59:43;94048.25;;;19.78;34.20
10261;BME280;5175;42.606;23.388;2022-10-19T11:02:30;94038.69;;;20.02;34.35
10261;BME280;5175;42.606;23.388;2022-10-19T11:05:05;94028.66;;;20.02;34.79
10261;BME280;5175;42.606;23.388;2022-10-19T11:07:33;94030.34;;;20.07;34.27
10261;BME280;5175;42.606;23.388;2022-10-19T11:10:09;94036.44;;;20.04;32.65
10261;BME280;5175;42.606;23.388;2022-10-19T11:12:40;94034.25;;;19.76;32.41
10261;BME280;5175;42.606;23.388;2022-10-19T11:15:15;94027.69;;;20.19;34.00
10261;BME280;5175;42.606;23.388;2022-10-19T11:17:52;94020.16;;;20.04;31.80
10261;BME280;5175;42.606;23.388;2022-10-19T11:20:21;94022.44;;;20.02;31.42
10261;BME280;5175;42.606;23.388;2022-10-19T11:23:01;94013.38;;;19.97;31.83
10261;BME280;5175;42.606;23.388;2022-10-19T11:25:38;94014.03;;;20.15;31.03
10261;BME280;5175;42.606;23.388;2022-10-19T11:28:19;94007.88;;;20.27;32.41
10261;BME280;5175;42.606;23.388;2022-10-19T11:30:56;94016.66;;;20.44;31.90
10261;BME280;5175;42.606;23.388;2022-10-19T11:33:37;94010.03;;;20.54;30.65
10261;BME280;5175;42.606;23.388;2022-10-19T11:36:13;94003.84;;;20.78;31.84
10261;BME280;5175;42.606;23.388;2022-10-19T11:38:51;93999.44;;;20.61;30.41
10261;BME280;5175;42.606;23.388;2022-10-19T11:41:29;93999.00;;;20.83;30.54
10261;BME280;5175;42.606;23.388;2022-10-19T11:44:10;93990.38;;;20.57;30.35
10261;BME280;5175;42.606;23.388;2022-10-19T11:46:48;93996.88;;;20.77;30.26
10261;BME280;5175;42.606;23.388;2022-10-19T11:49:28;93998.34;;;20.86;31.18
10261;BME280;5175;42.606;23.388;2022-10-19T11:52:01;93989.22;;;21.03;31.59
10261;BME280;5175;42.606;23.388;2022-10-19T11:54:39;93998.41;;;21.10;29.92
10261;BME280;5175;42.606;23.388;2022-10-19T11:57:11;93988.00;;;21.25;30.50
10261;BME280;5175;42.606;23.388;2022-10-19T11:59:52;93991.72;;;21.44;30.55
10261;BME280;5175;42.606;23.388;2022-10-19T12:02:38;93987.56;;;20.53;29.09
10261;BME280;5175;42.606;23.388;2022-10-19T12:05:12;93981.13;;;20.70;29.13
10261;BME280;5175;42.606;23.388;2022-10-19T12:07:55;93985.38;;;20.47;30.07
10261;BME280;5175;42.606;23.388;2022-10-19T12:10:30;93976.88;;;20.81;29.23
10261;BME280;5175;42.606;23.388;2022-10-19T12:13:03;93928.94;;;20.49;29.74
10261;BME280;5175;42.606;23.388;2022-10-19T12:15:32;93971.97;;;20.63;29.63
10261;BME280;5175;42.606;23.388;2022-10-19T12:18:05;93969.03;;;20.55;29.29
10261;BME280;5175;42.606;23.388;2022-10-19T12:20:36;93966.16;;;20.85;29.76
10261;BME280;5175;42.606;23.388;2022-10-19T12:23:16;93970.44;;;20.98;28.55
10261;BME280;5175;42.606;23.388;2022-10-19T12:25:46;93964.47;;;21.41;28.94
10261;BME280;5175;42.606;23.388;2022-10-19T12:28:20;93954.25;;;21.50;29.49
10261;BME280;5175;42.606;23.388;2022-10-19T12:30:48;93967.56;;;21.79;29.06
10261;BME280;5175;42.606;23.388;2022-10-19T12:33:19;93960.75;;;21.97;28.18
10261;BME280;5175;42.606;23.388;2022-10-19T12:36:00;93961.78;;;22.20;28.57
10261;BME280;5175;42.606;23.388;2022-10-19T12:38:37;93962.25;;;22.22;29.15
10261;BME280;5175;42.606;23.388;2022-10-19T12:41:12;93953.25;;;21.54;28.29
10261;BME280;5175;42.606;23.388;2022-10-19T12:43:54;93959.03;;;21.16;28.93
10261;BME280;5175;42.606;23.388;2022-10-19T12:46:31;93956.78;;;21.18;29.93
10261;BME280;5175;42.606;23.388;2022-10-19T12:49:36;93958.91;;;21.61;30.16
10261;BME280;5175;42.606;23.388;2022-10-19T12:52:09;93955.81;;;21.87;29.54
10261;BME280;5175;42.606;23.388;2022-10-19T12:54:38;93950.28;;;22.11;29.80
10261;BME280;5175;42.606;23.388;2022-10-19T12:57:20;93959.72;;;22.29;29.89
10261;BME280;5175;42.606;23.388;2022-10-19T12:59:59;93955.59;;;22.35;29.57
10261;BME280;5175;42.606;23.388;2022-10-19T13:02:28;93956.34;;;22.48;28.85
10261;BME280;5175;42.606;23.388;2022-10-19T13:04:56;93953.53;;;22.60;29.95
10261;BME280;5175;42.606;23.388;2022-10-19T13:07:24;93961.03;;;22.63;28.03
10261;BME280;5175;42.606;23.388;2022-10-19T13:09:58;93950.81;;;22.88;28.37
10261;BME280;5175;42.606;23.388;2022-10-19T13:12:28;93948.84;;;22.02;28.14
10261;BME280;5175;42.606;23.388;2022-10-19T13:24:36;93948.19;;;21.04;30.72
10261;BME280;5175;42.606;23.388;2022-10-19T13:27:36;93952.78;;;21.64;30.57
10261;BME280;5175;42.606;23.388;2022-10-19T13:30:04;93945.88;;;21.55;31.22
10261;BME280;5175;42.606;23.388;2022-10-19T13:32:36;93935.00;;;22.07;30.43
10261;BME280;5175;42.606;23.388;2022-10-19T13:35:24;93940.88;;;22.80;29.62